Time;durP1;ratioP1;P1;durP2;ratioP2;P2;SDS_P1;SDS_P2;PMS_P1;PMS_P2;Temp;Humidity;BMP_temperature;BMP_pressure;BME280_temperature;BME280_humidity;BME280_pressure;Samples;Min_cycle;Max_cycle;Signal;HPM_P1;HPM_P2
2022/01/12 00:01:51;;;;;;;10.73;9.60;;;-1.00;99.90;;;-0.37;94.31;99646.91;5205074;28;20225;-63
2022/01/12 00:04:24;;;;;;;11.00;9.90;;;-1.10;99.90;;;-0.41;94.75;99649.75;5204614;28;20231;-63
2022/01/12 00:06:58;;;;;;;9.97;8.97;;;-1.10;99.90;;;-0.47;95.32;99647.34;5198315;28;20262;-63
2022/01/12 00:09:31;;;;;;;10.13;9.23;;;-1.10;99.90;;;-0.47;94.29;99640.72;5193874;28;20705;-63
2022/01/12 00:12:05;;;;;;;10.73;9.63;;;-1.10;99.90;;;-0.49;94.96;99641.22;5205904;28;20224;-64
2022/01/12 00:14:39;;;;;;;10.37;9.37;;;-1.10;99.90;;;-0.56;94.42;99644.56;5205006;28;20671;-63
2022/01/12 00:17:12;;;;;;;10.37;9.37;;;-1.20;99.90;;;-0.55;95.23;99651.38;5206409;28;20219;-63
2022/01/12 00:19:46;;;;;;;11.70;10.60;;;-1.20;99.90;;;-0.57;94.46;99662.84;5198291;28;20218;-63
2022/01/12 00:22:19;;;;;;;11.33;10.37;;;-1.20;99.90;;;-0.59;94.85;99654.22;5200760;28;20696;-63
2022/01/12 00:25:11;;;;;;;10.70;9.70;;;-1.20;99.90;;;-0.61;95.50;99665.66;5198584;28;20226;-64
2022/01/12 00:33:27;;;;;;;11.73;10.53;;;-1.10;99.90;;;-0.58;95.77;99676.09;5192719;28;20240;-62
2022/01/12 00:36:00;;;;;;;11.03;9.93;;;-1.10;99.90;;;-0.57;95.35;99679.50;5198883;28;20222;-63
2022/01/12 00:38:33;;;;;;;11.63;10.43;;;-1.20;99.90;;;-0.46;95.45;99679.28;5201677;28;20227;-63
2022/01/12 00:41:06;;;;;;;10.20;9.30;;;-1.20;99.90;;;-0.51;94.94;99691.25;5204965;28;20607;-63
2022/01/12 00:43:43;;;;;;;11.27;10.17;;;-1.30;99.90;;;-0.54;94.99;99685.84;5203624;28;20605;-63
2022/01/12 00:46:18;;;;;;;11.23;10.10;;;-1.30;99.90;;;-0.54;94.32;99693.38;5195794;28;20258;-64
2022/01/12 00:48:55;;;;;;;10.63;9.70;;;-1.30;99.90;;;-0.57;94.81;99689.53;5196638;28;20693;-63
2022/01/12 00:51:32;;;;;;;11.30;10.20;;;-1.30;99.90;;;-0.63;94.37;99692.19;5195756;28;20229;-63
2022/01/12 00:54:08;;;;;;;11.43;10.37;;;-1.30;99.90;;;-0.68;95.09;99688.19;5201393;28;20225;-63
2022/01/12 00:56:41;;;;;;;10.87;9.87;;;-1.30;99.90;;;-0.72;95.71;99694.38;5199793;28;20214;-63
2022/01/12 00:59:14;;;;;;;11.13;10.13;;;-1.40;99.90;;;-0.74;95.63;99699.94;5206288;28;20221;-63
2022/01/12 01:01:49;;;;;;;12.13;10.83;;;-1.40;99.90;;;-0.80;95.24;99697.53;5199227;28;20230;-63
2022/01/12 01:04:22;;;;;;;10.97;9.97;;;-1.40;99.90;;;-0.78;95.92;99697.72;5188810;28;20263;-64
2022/01/12 01:06:55;;;;;;;11.97;10.77;;;-1.40;99.90;;;-0.76;95.96;99708.88;5191338;28;20762;-63
2022/01/12 01:09:28;;;;;;;11.63;10.53;;;-1.40;99.90;;;-0.82;94.81;99698.03;5196349;28;20247;-63
2022/01/12 01:12:01;;;;;;;12.23;11.10;;;-1.50;99.90;;;-0.85;95.65;99713.59;5198628;28;20227;-63
2022/01/12 01:14:45;;;;;;;12.37;11.10;;;-1.50;99.90;;;-0.91;95.37;99710.28;5195796;28;20246;-63
2022/01/12 01:25:52;;;;;;;13.57;12.10;;;-1.50;99.90;;;-0.92;95.90;99718.50;5191072;28;20227;-63
2022/01/12 01:28:25;;;;;;;12.33;11.13;;;-1.60;99.90;;;-0.93;94.45;99715.09;5199809;28;20753;-63
2022/01/12 01:30:58;;;;;;;12.33;11.20;;;-1.60;99.90;;;-0.96;94.67;99722.22;5201900;28;20681;-63
2022/01/12 01:33:33;;;;;;;12.57;10.87;;;-1.60;99.90;;;-0.92;94.72;99721.94;5191448;28;20215;-63
2022/01/12 01:36:06;;;;;;;13.60;12.20;;;-1.60;99.90;;;-0.94;94.53;99717.41;5200043;28;20693;-63
2022/01/12 01:38:39;;;;;;;14.73;12.50;;;-1.60;99.90;;;-1.00;94.80;99721.59;5195296;28;20232;-64
2022/01/12 01:41:14;;;;;;;13.77;12.33;;;-1.60;99.90;;;-1.17;94.31;99717.81;5203303;28;20248;-63
2022/01/12 01:44:09;;;;;;;15.23;13.20;;;-1.80;99.90;;;-1.13;95.00;99721.63;5199526;28;20730;-63
2022/01/12 01:55:16;;;;;;;15.70;13.20;;;-1.80;99.90;;;-1.19;94.90;99704.16;5199295;28;20686;-66
2022/01/12 01:57:50;;;;;;;14.10;12.57;;;-1.80;99.90;;;-1.20;94.85;99706.47;5199777;28;20230;-64
2022/01/12 02:00:26;;;;;;;13.43;12.13;;;-1.80;99.90;;;-1.15;95.58;99706.34;5200515;28;20224;-64
2022/01/12 02:03:00;;;;;;;12.87;11.57;;;-1.80;99.90;;;-1.15;94.54;99700.44;5197245;28;20233;-62
2022/01/12 02:05:35;;;;;;;13.27;11.70;;;-1.80;99.90;;;-1.25;94.77;99693.31;5192717;28;20294;-62
2022/01/12 02:08:08;;;;;;;12.27;11.07;;;-1.90;99.90;;;-1.27;95.17;99693.81;5203233;28;20692;-63
2022/01/12 02:10:41;;;;;;;13.90;12.30;;;-1.90;99.90;;;-1.37;95.72;99695.09;5189274;28;20234;-63
2022/01/12 02:13:15;;;;;;;12.00;10.80;;;-2.00;99.90;;;-1.34;95.61;99701.19;5201645;28;20591;-62
2022/01/12 02:15:49;;;;;;;12.17;10.97;;;-2.00;99.90;;;-1.35;95.26;99695.28;5193223;28;20218;-62
2022/01/12 02:18:36;;;;;;;11.13;10.03;;;-2.00;99.90;;;-1.33;94.77;99703.03;5201870;28;20230;-62
2022/01/12 02:35:44;;;;;;;11.40;10.27;;;-2.10;99.90;;;-1.46;94.65;99721.47;5194719;28;20656;-64
2022/01/12 02:41:11;;;;;;;10.77;9.80;;;-2.00;99.90;;;-1.33;94.37;99718.09;5192604;28;20223;-62
2022/01/12 02:55:08;;;;;;;11.23;10.23;;;-2.10;99.90;;;-1.54;95.01;99727.06;5199124;28;20217;-64
2022/01/12 02:57:41;;;;;;;12.50;10.43;;;-2.10;99.90;;;-1.58;94.99;99722.31;5198351;28;20218;-66
2022/01/12 03:00:17;;;;;;;11.67;10.60;;;-2.20;99.90;;;-1.64;95.21;99724.00;5188661;28;20237;-62
2022/01/12 03:02:52;;;;;;;12.40;10.17;;;-2.20;99.90;;;-1.61;95.61;99720.31;5189501;28;20226;-64
2022/01/12 03:05:34;;;;;;;11.27;10.17;;;-2.20;99.90;;;-1.60;95.17;99728.75;5198115;28;20283;-64
2022/01/12 03:08:13;;;;;;;10.63;9.73;;;-2.20;99.90;;;-1.63;95.30;99735.84;5195349;28;20233;-64
2022/01/12 03:10:48;;;;;;;10.97;9.87;;;-2.20;99.90;;;-1.63;95.22;99730.81;5193154;28;20221;-64
2022/01/12 03:13:22;;;;;;;12.20;11.10;;;-2.30;99.90;;;-1.63;95.33;99721.72;5200885;28;20606;-64
2022/01/12 03:15:55;;;;;;;10.03;9.13;;;-2.20;99.90;;;-1.62;95.00;99712.59;5197833;28;20213;-65
2022/01/12 03:18:28;;;;;;;11.57;10.47;;;-2.30;99.90;;;-1.61;94.40;99709.38;5198790;28;20224;-64
2022/01/12 03:21:01;;;;;;;11.20;10.10;;;-2.30;99.90;;;-1.73;94.05;99713.66;5195182;28;20229;-63
2022/01/12 03:23:34;;;;;;;12.27;11.10;;;-2.30;99.90;;;-1.72;93.24;99717.06;5196790;28;20223;-63
2022/01/12 03:26:10;;;;;;;12.43;10.80;;;-2.40;99.90;;;-1.77;93.69;99730.56;5205108;28;20226;-63
2022/01/12 03:28:44;;;;;;;12.17;10.87;;;-2.40;99.90;;;-1.75;93.96;99734.19;5197430;28;20226;-63
2022/01/12 03:31:20;;;;;;;12.13;10.97;;;-2.40;99.90;;;-1.78;93.39;99727.19;5196911;28;20501;-63
2022/01/12 03:33:58;;;;;;;12.87;11.70;;;-2.40;99.90;;;-1.78;93.91;99726.28;5195477;28;20596;-63
2022/01/12 03:36:42;;;;;;;12.50;11.30;;;-2.40;99.90;;;-1.77;94.36;99720.56;5197073;28;20228;-63
2022/01/12 03:39:16;;;;;;;12.87;11.47;;;-2.30;99.90;;;-1.78;95.44;99728.78;5195876;28;20594;-63
2022/01/12 03:41:50;;;;;;;12.43;11.13;;;-2.40;99.90;;;-1.82;94.06;99733.38;5198724;28;20627;-63
2022/01/12 03:44:23;;;;;;;12.13;10.93;;;-2.40;99.90;;;-1.82;94.28;99743.41;5208806;28;20223;-63
2022/01/12 03:46:56;;;;;;;13.83;12.20;;;-2.40;99.90;;;-1.82;95.82;99742.50;5201507;28;20221;-63
2022/01/12 03:49:29;;;;;;;12.90;10.93;;;-2.40;99.90;;;-1.81;95.59;99750.22;5195817;28;20221;-63
2022/01/12 03:52:02;;;;;;;13.30;12.03;;;-2.40;99.90;;;-1.84;94.04;99748.91;5188798;28;20229;-63
2022/01/12 03:54:35;;;;;;;12.00;10.80;;;-2.40;99.90;;;-1.89;94.84;99749.88;5194071;28;20229;-63
2022/01/12 03:57:09;;;;;;;12.73;11.40;;;-2.40;99.90;;;-1.83;94.95;99761.66;5199115;28;20229;-63
2022/01/12 03:59:42;;;;;;;14.00;11.97;;;-2.40;99.90;;;-1.82;94.29;99760.94;5200935;28;20233;-63
2022/01/12 04:02:16;;;;;;;12.23;11.03;;;-2.40;99.90;;;-1.86;95.26;99762.81;5201620;28;20226;-63
2022/01/12 04:05:11;;;;;;;12.37;11.10;;;-2.40;99.90;;;-1.84;94.14;99764.84;5198799;28;20709;-63
2022/01/12 04:10:34;;;;;;;13.53;11.30;;;-2.40;99.90;;;-1.86;95.30;99761.25;5203695;28;20225;-63
2022/01/12 04:13:09;;;;;;;13.00;11.80;;;-2.40;99.90;;;-1.82;95.21;99782.59;5205334;28;20222;-63
2022/01/12 04:15:42;;;;;;;13.50;11.97;;;-2.40;99.90;;;-1.84;95.22;99789.91;5205884;28;20217;-65
2022/01/12 04:18:15;;;;;;;13.87;12.57;;;-2.40;99.90;;;-1.83;94.19;99786.72;5199997;28;20678;-63
2022/01/12 04:20:51;;;;;;;13.63;12.30;;;-2.40;99.90;;;-1.87;93.64;99792.00;5199868;28;20256;-63
2022/01/12 04:23:24;;;;;;;13.90;12.47;;;-2.40;99.90;;;-1.82;95.44;99782.59;5202997;28;20225;-63
2022/01/12 04:26:00;;;;;;;13.60;11.83;;;-2.40;99.90;;;-1.75;95.27;99775.19;5190193;28;20600;-62
2022/01/12 04:28:34;;;;;;;12.20;11.10;;;-2.30;99.90;;;-1.55;95.05;99767.84;5200508;28;20221;-63
2022/01/12 04:31:08;;;;;;;12.27;11.07;;;-2.30;99.90;;;-1.49;93.48;99767.78;5201466;28;20573;-63
2022/01/12 04:33:44;;;;;;;11.37;10.13;;;-2.30;99.90;;;-1.44;93.01;99760.16;5202717;28;20214;-63
2022/01/12 04:36:18;;;;;;;11.83;10.70;;;-2.20;99.90;;;-1.53;93.18;99748.91;5206221;28;20217;-63
2022/01/12 04:38:51;;;;;;;12.23;10.57;;;-2.20;99.90;;;-1.55;93.56;99747.81;5192786;28;20222;-63
2022/01/12 04:41:26;;;;;;;12.57;11.27;;;-2.30;99.90;;;-1.67;92.74;99758.69;5201445;28;20224;-63
2022/01/12 04:44:02;;;;;;;13.30;11.97;;;-2.40;99.90;;;-1.69;93.77;99760.09;5200113;28;20694;-63
2022/01/12 04:46:49;;;;;;;12.20;11.07;;;-2.30;99.90;;;-1.66;92.55;99765.50;5197843;28;20231;-63
2022/01/12 04:49:47;;;;;;;12.53;11.23;;;-2.30;99.90;;;-1.72;92.57;99765.59;5195897;28;20301;-63
2022/01/12 04:52:20;;;;;;;13.10;11.70;;;-2.30;99.90;;;-1.70;93.89;99776.72;5196328;28;20224;-63
2022/01/12 04:54:56;;;;;;;12.93;11.63;;;-2.30;99.90;;;-1.68;93.65;99780.34;5194114;28;20717;-63
2022/01/12 04:57:29;;;;;;;13.07;11.67;;;-2.20;99.90;;;-1.63;92.91;99780.97;5189479;28;20701;-63
2022/01/12 05:00:14;;;;;;;14.20;12.70;;;-2.20;99.90;;;-1.61;93.46;99770.44;5194632;28;20225;-63
2022/01/12 05:08:49;;;;;;;13.33;11.93;;;-2.10;99.90;;;-1.56;94.58;99777.69;5192172;28;20226;-63
2022/01/12 05:14:12;;;;;;;16.57;14.80;;;-2.10;99.90;;;-1.44;94.67;99799.41;5204079;28;20221;-64
2022/01/12 05:16:47;;;;;;;14.67;13.17;;;-2.00;99.90;;;-1.43;94.83;99802.13;5203729;28;20232;-63
2022/01/12 05:19:20;;;;;;;15.10;13.50;;;-2.00;99.90;;;-1.40;93.94;99816.69;5202100;28;20224;-63
2022/01/12 05:21:53;;;;;;;13.97;12.67;;;-2.00;99.90;;;-1.44;94.68;99822.84;5194950;28;20229;-64
2022/01/12 05:24:26;;;;;;;13.30;11.90;;;-2.00;99.90;;;-1.42;94.23;99813.06;5201191;28;20219;-63
2022/01/12 05:26:59;;;;;;;12.73;11.63;;;-2.00;99.90;;;-1.38;94.69;99810.25;5199622;28;20221;-63
2022/01/12 05:29:32;;;;;;;13.37;11.90;;;-2.00;99.90;;;-1.32;94.09;99812.66;5192125;28;20227;-64
2022/01/12 05:32:10;;;;;;;12.50;11.20;;;-2.00;99.90;;;-1.28;93.88;99814.91;5189546;28;20225;-64
2022/01/12 05:34:43;;;;;;;14.30;12.73;;;-2.00;99.90;;;-1.33;92.96;99810.88;5187970;28;20244;-65
2022/01/12 05:37:16;;;;;;;13.20;11.90;;;-2.00;99.90;;;-1.42;93.06;99821.47;5201225;28;20593;-64
2022/01/12 05:39:49;;;;;;;14.00;12.37;;;-2.20;99.90;;;-1.54;92.17;99818.94;5185372;28;20226;-64
2022/01/12 05:42:31;;;;;;;14.40;12.90;;;-2.20;99.90;;;-1.67;92.46;99811.34;5207303;28;20592;-64
2022/01/12 05:45:07;;;;;;;13.77;12.37;;;-2.30;99.90;;;-1.64;93.39;99819.28;5191353;28;20228;-64
2022/01/12 05:50:30;;;;;;;13.30;12.00;;;-2.30;99.90;;;-1.79;92.27;99828.13;5203726;28;20681;-63
2022/01/12 05:53:04;;;;;;;15.50;13.83;;;-2.40;99.90;;;-1.76;93.84;99832.66;5194934;28;20227;-63
2022/01/12 05:55:37;;;;;;;14.67;13.20;;;-2.30;99.90;;;-1.73;93.25;99833.06;5193396;28;20218;-63
2022/01/12 05:58:12;;;;;;;14.17;12.67;;;-2.30;99.90;;;-1.71;94.00;99829.19;5199470;28;20719;-63
2022/01/12 06:00:45;;;;;;;14.83;13.00;;;-2.30;99.90;;;-1.75;94.39;99825.31;5196531;28;20260;-64
2022/01/12 06:03:19;;;;;;;15.13;13.07;;;-2.30;99.90;;;-1.76;93.96;99828.53;5201929;28;20225;-63
2022/01/12 06:05:52;;;;;;;14.20;12.67;;;-2.30;99.90;;;-1.81;92.94;99832.91;5196767;28;20263;-64
2022/01/12 06:08:25;;;;;;;13.73;12.47;;;-2.40;99.90;;;-1.88;92.52;99822.78;5195211;28;20226;-64
2022/01/12 06:10:58;;;;;;;13.13;11.70;;;-2.50;99.90;;;-1.84;94.06;99830.00;5190937;28;20222;-64
2022/01/12 06:13:31;;;;;;;14.27;12.87;;;-2.40;99.90;;;-1.88;93.38;99837.81;5195968;28;20236;-64
2022/01/12 06:16:05;;;;;;;13.90;12.60;;;-2.50;99.90;;;-1.89;93.23;99841.00;5197260;28;20588;-64
2022/01/12 06:18:40;;;;;;;15.50;13.40;;;-2.50;99.90;;;-1.92;92.77;99844.69;5188768;28;20219;-64
2022/01/12 06:21:13;;;;;;;14.43;12.93;;;-2.50;99.90;;;-1.92;94.29;99842.16;5193651;28;20609;-63
2022/01/12 06:23:46;;;;;;;15.57;13.63;;;-2.50;99.90;;;-1.92;94.53;99840.56;5190524;28;20222;-63
2022/01/12 06:26:23;;;;;;;15.87;12.67;;;-2.50;99.90;;;-1.94;93.33;99844.47;5194165;28;21240;-64
2022/01/12 06:29:24;;;;;;;15.83;13.37;;;-2.50;99.90;;;-1.97;93.90;99854.09;5197956;28;20225;-63
2022/01/12 06:31:58;;;;;;;15.20;13.70;;;-2.50;99.90;;;-1.94;93.79;99866.13;5194842;28;20259;-64
2022/01/12 06:34:38;;;;;;;15.87;14.13;;;-2.50;99.90;;;-1.90;92.80;99863.34;5187857;28;20222;-64
2022/01/12 06:37:12;;;;;;;14.93;13.43;;;-2.50;99.90;;;-1.95;93.93;99877.72;5190905;28;20235;-64
2022/01/12 06:39:45;;;;;;;14.57;13.17;;;-2.50;99.90;;;-1.99;92.73;99880.53;5193420;28;20233;-64
2022/01/12 06:42:19;;;;;;;15.63;14.13;;;-2.60;99.90;;;-2.01;94.15;99884.41;5197940;28;20275;-63
2022/01/12 06:44:52;;;;;;;15.63;14.03;;;-2.60;99.90;;;-2.01;92.85;99884.41;5199232;28;20229;-64
2022/01/12 06:47:25;;;;;;;14.77;13.27;;;-2.60;99.90;;;-2.00;94.13;99886.25;5202669;28;20214;-64
2022/01/12 06:49:59;;;;;;;14.80;13.23;;;-2.60;99.90;;;-2.04;92.55;99891.50;5209216;28;20676;-64
2022/01/12 06:52:32;;;;;;;15.63;14.03;;;-2.60;99.90;;;-2.10;93.61;99889.06;5208992;28;20212;-64
2022/01/12 06:55:07;;;;;;;15.07;13.57;;;-2.70;99.90;;;-2.12;92.98;99874.50;5202386;28;20305;-64
2022/01/12 06:57:40;;;;;;;14.57;13.03;;;-2.70;99.90;;;-2.17;92.74;99875.50;5199313;28;20217;-63
2022/01/12 07:00:14;;;;;;;14.37;13.07;;;-2.80;99.90;;;-2.21;93.99;99878.25;5192820;28;20224;-63
2022/01/12 07:02:47;;;;;;;15.10;13.37;;;-2.80;99.90;;;-2.27;92.53;99874.19;5201996;28;20217;-63
2022/01/12 07:05:22;;;;;;;16.50;13.30;;;-2.80;99.90;;;-2.26;94.20;99875.13;5198788;28;20252;-63
2022/01/12 07:07:55;;;;;;;16.63;14.83;;;-2.80;99.90;;;-2.28;92.52;99877.41;5200862;28;20221;-63
2022/01/12 07:10:28;;;;;;;15.50;13.90;;;-2.80;99.90;;;-2.22;94.43;99866.44;5203733;28;20236;-63
2022/01/12 07:13:01;;;;;;;14.57;13.03;;;-2.80;99.90;;;-2.23;93.39;99865.53;5207763;28;20218;-64
2022/01/12 07:15:34;;;;;;;15.57;12.27;;;-2.80;99.90;;;-2.10;93.05;99868.13;5195297;28;20271;-63
2022/01/12 07:18:07;;;;;;;14.90;13.40;;;-2.80;99.90;;;-2.20;93.68;99890.06;5208139;28;20244;-64
2022/01/12 07:20:42;;;;;;;14.37;12.97;;;-2.80;99.90;;;-2.19;93.21;99897.81;5202405;28;20221;-64
2022/01/12 07:23:15;;;;;;;14.67;12.70;;;-2.80;99.90;;;-2.14;92.89;99889.34;5195147;28;20585;-64
2022/01/12 07:25:49;;;;;;;16.97;14.50;;;-2.70;99.90;;;-2.10;94.14;99884.03;5194856;28;20429;-63
2022/01/12 07:28:23;;;;;;;17.63;14.10;;;-2.60;99.90;;;-2.05;92.70;99898.13;5208117;28;20221;-63
2022/01/12 07:30:56;;;;;;;16.27;14.43;;;-2.60;99.90;;;-2.00;93.90;99896.25;5210139;28;20244;-63
2022/01/12 07:33:29;;;;;;;15.90;14.30;;;-2.50;99.90;;;-1.98;93.39;99899.84;5196997;28;20250;-63
2022/01/12 07:36:03;;;;;;;16.90;14.77;;;-2.50;99.90;;;-2.00;93.19;99897.81;5203633;28;20222;-64
2022/01/12 07:38:37;;;;;;;16.10;14.50;;;-2.40;99.90;;;-1.92;94.34;99902.31;5205629;28;20312;-63
2022/01/12 07:41:10;;;;;;;17.10;15.27;;;-2.40;99.90;;;-1.81;92.97;99903.09;5197298;28;20252;-63
2022/01/12 07:43:43;;;;;;;18.63;16.40;;;-2.30;99.90;;;-1.78;93.79;99899.19;5204154;28;20222;-63
2022/01/12 07:46:16;;;;;;;19.37;16.17;;;-2.30;99.90;;;-1.72;93.96;99905.03;5200755;28;20313;-63
2022/01/12 07:48:49;;;;;;;16.30;14.70;;;-2.30;99.90;;;-1.68;94.23;99908.19;5194001;28;20229;-63
2022/01/12 07:51:23;;;;;;;16.03;14.33;;;-2.30;99.90;;;-1.65;92.85;99903.59;5203458;28;20222;-63
2022/01/12 07:53:56;;;;;;;17.10;15.30;;;-2.10;99.90;;;-1.43;94.31;99904.94;5201594;28;20221;-63
2022/01/12 07:56:29;;;;;;;18.53;15.87;;;-2.00;99.90;;;-1.30;92.57;99904.06;5201505;28;20217;-63
2022/01/12 07:59:02;;;;;;;16.03;14.40;;;-1.90;99.90;;;-1.22;93.16;99903.50;5206445;28;20215;-64
2022/01/12 08:01:35;;;;;;;16.43;14.73;;;-1.80;99.90;;;-1.11;92.59;99908.38;5199384;28;20231;-63
2022/01/12 08:06:56;;;;;;;18.13;16.17;;;-1.60;99.90;;;-0.83;93.34;99912.06;5188318;28;20238;-65
2022/01/12 08:09:29;;;;;;;17.60;15.67;;;-1.30;99.90;;;-0.71;91.18;99923.78;5186770;28;20481;-65
2022/01/12 08:12:02;;;;;;;22.00;17.33;;;-1.20;99.90;;;-0.51;92.56;99934.84;5188306;28;20217;-65
2022/01/12 08:14:36;;;;;;;35.23;24.07;;;-1.00;99.90;;;-0.31;92.32;99929.97;5183284;28;20319;-65
2022/01/12 08:17:09;;;;;;;21.03;18.13;;;-0.80;99.90;;;-0.13;89.41;99925.56;5169968;28;20232;-66
2022/01/12 08:19:42;;;;;;;19.80;16.80;;;-0.60;99.90;;;-0.07;89.89;99936.41;5176485;28;20581;-65
2022/01/12 08:22:17;;;;;;;17.90;16.00;;;-0.60;99.90;;;-0.05;89.25;99945.06;5185341;28;20223;-65
2022/01/12 08:24:50;;;;;;;18.33;16.43;;;-0.60;99.90;;;0.25;89.42;99953.19;5185028;28;20216;-65
2022/01/12 08:27:23;;;;;;;17.33;15.60;;;-0.40;99.90;;;0.35;89.82;99955.31;5179020;28;20234;-65
2022/01/12 08:30:00;;;;;;;17.43;15.67;;;-0.20;99.90;;;0.52;89.05;99949.94;5185727;28;20236;-65
2022/01/12 08:32:33;;;;;;;16.20;14.40;;;-0.10;99.90;;;0.64;89.05;99961.59;5186291;28;20590;-64
2022/01/12 08:35:07;;;;;;;16.30;14.60;;;0.00;99.90;;;0.69;88.63;99963.09;5186074;28;20232;-65
2022/01/12 08:37:42;;;;;;;17.20;15.33;;;0.10;99.90;;;0.79;88.17;99962.66;5185671;28;20229;-65
2022/01/12 08:40:18;;;;;;;16.73;14.97;;;0.20;99.90;;;0.85;87.89;99954.25;5185712;28;20227;-64
2022/01/12 08:42:51;;;;;;;17.77;15.97;;;0.20;99.90;;;0.99;86.15;99958.56;5173680;28;20226;-65
2022/01/12 08:45:25;;;;;;;17.60;15.80;;;0.30;99.90;;;1.10;85.80;99963.34;5188487;28;20696;-64
2022/01/12 08:47:58;;;;;;;16.73;15.13;;;0.40;99.90;;;1.25;85.20;99959.34;5175800;28;20235;-65
2022/01/12 08:50:32;;;;;;;18.63;16.63;;;0.60;99.90;;;1.33;84.17;99968.78;5170196;28;20215;-65
2022/01/12 08:53:06;;;;;;;19.67;17.57;;;0.70;99.90;;;1.40;83.84;99967.03;5182041;28;20227;-65
2022/01/12 08:55:39;;;;;;;18.27;16.50;;;0.60;99.90;;;1.38;82.42;99971.00;5185280;28;20235;-64
2022/01/12 08:58:12;;;;;;;17.20;15.50;;;0.60;99.90;;;1.40;83.43;99978.00;5185716;28;20219;-65
2022/01/12 09:00:46;;;;;;;18.00;16.20;;;0.60;99.90;;;1.48;83.03;99984.03;5181337;28;20225;-64
2022/01/12 09:03:19;;;;;;;17.23;15.43;;;0.80;99.90;;;1.55;82.25;99985.00;5165918;28;20686;-63
2022/01/12 09:05:52;;;;;;;16.50;14.90;;;0.80;99.90;;;1.94;77.79;99969.63;5167180;28;20268;-64
2022/01/12 09:08:28;;;;;;;18.97;16.97;;;1.30;99.90;;;1.78;78.39;99965.19;5185800;28;20224;-64
2022/01/12 09:11:01;;;;;;;18.90;17.03;;;1.30;99.90;;;1.62;80.74;99974.06;5184501;28;20228;-64
2022/01/12 09:13:35;;;;;;;18.83;17.03;;;1.10;99.90;;;1.73;80.53;99971.28;5176969;28;20233;-64
2022/01/12 09:16:10;;;;;;;16.73;15.13;;;1.20;99.90;;;1.82;79.90;99968.09;5183516;28;20590;-64
2022/01/12 09:18:44;;;;;;;19.47;17.57;;;1.20;99.90;;;1.70;79.23;99964.97;5189955;28;20226;-63
2022/01/12 09:21:17;;;;;;;18.73;16.83;;;1.10;99.90;;;1.63;80.63;99973.38;5189434;28;20237;-63
2022/01/12 09:23:51;;;;;;;19.43;17.53;;;1.00;99.90;;;1.63;79.18;99987.56;5176985;28;20227;-63
2022/01/12 09:26:24;;;;;;;18.67;16.77;;;1.00;99.90;;;1.58;80.62;99994.56;5170099;28;20255;-65
2022/01/12 09:28:57;;;;;;;17.43;15.63;;;1.00;99.90;;;1.72;76.92;99996.31;5169878;28;20233;-63
2022/01/12 09:31:30;;;;;;;17.30;15.50;;;1.00;99.90;;;1.82;75.34;100010.97;5189238;28;20229;-63
2022/01/12 09:34:04;;;;;;;18.50;16.30;;;1.10;99.90;;;1.75;75.70;100011.81;5189295;28;20254;-64
2022/01/12 09:36:37;;;;;;;17.90;16.20;;;1.20;99.90;;;1.75;76.51;100012.72;5189853;28;20464;-64
2022/01/12 09:39:11;;;;;;;16.53;14.93;;;1.20;99.90;;;1.75;75.21;100011.81;5182379;28;20226;-64
2022/01/12 09:41:44;;;;;;;17.00;15.40;;;1.10;99.90;;;1.74;77.07;100004.94;5178648;28;20686;-64
2022/01/12 09:44:18;;;;;;;16.17;14.67;;;1.10;99.90;;;2.01;76.05;99998.31;5189212;28;20291;-63
2022/01/12 09:46:51;;;;;;;16.57;14.97;;;1.30;99.90;;;2.27;73.03;99983.00;5189753;28;20226;-64
2022/01/12 09:49:29;;;;;;;17.80;16.00;;;1.60;99.90;;;2.48;72.82;99980.56;5190370;28;20597;-64
2022/01/12 09:52:04;;;;;;;18.37;16.53;;;1.80;99.90;;;2.57;73.64;99975.75;5189263;28;20570;-64
2022/01/12 09:54:39;;;;;;;18.13;16.40;;;2.00;99.90;;;2.48;74.87;99987.25;5187881;28;20225;-64
2022/01/12 09:57:12;;;;;;;16.57;14.97;;;2.00;99.90;;;2.41;73.35;99984.69;5184965;28;20225;-64
2022/01/12 09:59:45;;;;;;;17.63;15.83;;;1.70;99.90;;;2.37;72.69;99977.44;5185183;28;20240;-66
2022/01/12 10:02:21;;;;;;;16.63;15.00;;;1.70;99.90;;;2.49;71.66;99981.50;5185179;28;20245;-64
2022/01/12 10:05:01;;;;;;;16.57;14.97;;;1.80;99.90;;;2.49;70.71;99984.03;5184325;28;20229;-64
2022/01/12 10:07:35;;;;;;;15.73;14.23;;;1.80;99.90;;;2.59;72.30;99993.59;5175616;28;20464;-65
2022/01/12 10:10:14;;;;;;;16.53;14.93;;;1.90;99.90;;;2.87;70.43;100003.81;5177086;28;20321;-64
2022/01/12 10:12:54;;;;;;;16.63;14.93;;;2.20;99.90;;;2.79;71.11;100017.13;5178172;28;20225;-65
2022/01/12 10:15:29;;;;;;;15.50;14.10;;;2.10;99.90;;;2.67;68.83;100013.13;5189530;28;20360;-64
2022/01/12 10:18:03;;;;;;;15.83;14.37;;;1.90;99.90;;;2.68;70.56;100004.81;5184254;28;20309;-66
2022/01/12 10:20:45;;;;;;;16.43;14.83;;;1.80;99.90;;;2.52;69.31;100002.06;5167553;28;20226;-63
2022/01/12 10:23:23;;;;;;;17.13;15.43;;;1.60;99.90;;;2.48;71.18;100004.91;5172100;28;20222;-64
2022/01/12 10:25:57;;;;;;;16.17;14.73;;;1.60;99.90;;;2.49;71.80;100006.72;5177495;28;20600;-65
2022/01/12 10:28:30;;;;;;;16.93;15.17;;;1.70;99.90;;;2.51;72.34;100001.84;5184195;28;20593;-64
2022/01/12 10:31:05;;;;;;;16.63;14.93;;;1.80;99.90;;;2.47;71.10;100009.06;5183675;28;20554;-64
2022/01/12 10:33:40;;;;;;;15.40;13.93;;;1.70;99.90;;;2.58;71.28;100010.38;5183138;28;20229;-63
2022/01/12 10:36:13;;;;;;;15.90;14.40;;;1.90;99.90;;;2.63;70.58;100006.81;5170423;28;20250;-64
2022/01/12 10:38:47;;;;;;;15.43;14.03;;;1.90;99.90;;;2.48;71.54;100009.94;5173666;28;20245;-65
2022/01/12 10:41:21;;;;;;;15.00;13.57;;;1.80;99.90;;;2.51;70.54;100012.84;5182875;28;20223;-62
2022/01/12 10:43:54;;;;;;;14.27;12.97;;;1.80;99.90;;;2.31;69.10;100028.06;5176538;28;20226;-64
2022/01/12 10:46:31;;;;;;;14.03;12.73;;;1.60;99.90;;;2.31;70.62;100022.13;5187766;28;20652;-64
2022/01/12 10:49:04;;;;;;;14.53;13.20;;;1.50;99.90;;;2.35;69.94;100011.69;5187207;28;20670;-64
2022/01/12 10:51:37;;;;;;;14.40;13.10;;;1.50;99.90;;;2.42;69.99;100014.25;5184740;28;20214;-64
2022/01/12 10:54:10;;;;;;;15.27;13.77;;;1.60;99.90;;;2.33;70.08;100024.13;5193020;28;20225;-64
2022/01/12 10:56:44;;;;;;;15.37;13.97;;;1.70;99.90;;;2.44;70.38;100022.91;5187068;28;20235;-64
2022/01/12 10:59:19;;;;;;;15.17;13.67;;;1.70;99.90;;;2.56;68.67;100019.38;5184314;28;20247;-64
2022/01/12 11:01:52;;;;;;;16.50;15.00;;;1.90;99.90;;;2.78;69.36;100022.03;5189394;28;20235;-65
2022/01/12 11:04:26;;;;;;;14.90;13.50;;;2.10;99.90;;;3.05;70.31;100024.44;5183987;28;20308;-65
2022/01/12 11:07:00;;;;;;;13.93;12.63;;;2.40;99.90;;;3.07;68.70;100026.44;5185043;28;20235;-64
2022/01/12 11:09:33;;;;;;;14.73;13.40;;;2.40;99.90;;;3.02;69.74;100027.50;5185525;28;20670;-64
2022/01/12 11:12:10;;;;;;;13.90;12.70;;;2.40;99.90;;;2.99;69.40;100032.19;5187678;28;20250;-64
2022/01/12 11:14:43;;;;;;;14.70;13.37;;;2.40;99.90;;;2.96;69.14;100031.81;5197743;28;20871;-64
2022/01/12 11:17:17;;;;;;;14.00;12.73;;;2.20;99.90;;;3.09;68.70;100022.50;5183743;28;20226;-64
2022/01/12 11:20:00;;;;;;;14.43;13.13;;;2.10;99.90;;;3.13;68.77;100029.72;5182870;28;20324;-65
2022/01/12 11:22:48;;;;;;;14.20;12.90;;;2.10;99.90;;;2.91;69.13;100030.34;5178897;28;20228;-64
2022/01/12 11:25:24;;;;;;;14.07;12.87;;;2.00;99.90;;;2.87;69.75;100033.22;5193947;22;20615;-64
2022/01/12 11:28:15;;;;;;;14.47;13.27;;;1.90;99.90;;;2.82;68.43;100025.09;5176417;28;20218;-65
2022/01/12 11:31:01;;;;;;;13.70;12.47;;;1.90;99.90;;;2.64;69.80;100017.81;5169901;28;20223;-65
2022/01/12 11:33:42;;;;;;;14.90;13.60;;;1.80;99.90;;;2.57;69.89;100010.19;5179280;28;20219;-65
2022/01/12 11:36:20;;;;;;;14.93;13.43;;;1.70;99.90;;;2.42;70.94;100019.28;5163512;28;20223;-65
2022/01/12 11:39:03;;;;;;;13.70;12.40;;;1.70;99.90;;;2.51;71.09;100017.00;5165230;28;20219;-64
2022/01/12 11:41:38;;;;;;;14.47;13.20;;;1.70;99.90;;;2.39;70.50;100011.34;5169495;28;20287;-63
2022/01/12 11:44:15;;;;;;;14.80;13.40;;;1.60;99.90;;;2.43;71.29;100022.03;5186907;28;20706;-63
2022/01/12 11:46:52;;;;;;;15.77;13.43;;;1.60;99.90;;;2.38;72.15;100009.56;5173723;28;20656;-63
2022/01/12 11:49:32;;;;;;;14.70;13.40;;;1.60;99.90;;;2.39;70.98;99996.22;5167080;28;20225;-63
2022/01/12 11:52:16;;;;;;;15.30;13.80;;;1.50;99.90;;;2.28;72.49;99997.41;5180815;28;20222;-64